sensor_id;sensor_type;location;lat;lon;timestamp;P1;durP1;ratioP1;P2;durP2;ratioP2
9188;SDS011;34313;50.780;6.084;2023-04-25T00:00:17;12.13;;;4.00;;
9188;SDS011;34313;50.780;6.084;2023-04-25T00:02:42;12.33;;;4.43;;
9188;SDS011;34313;50.780;6.084;2023-04-25T00:05:08;7.13;;;4.40;;
9188;SDS011;34313;50.780;6.084;2023-04-25T00:07:34;13.17;;;4.30;;
9188;SDS011;34313;50.780;6.084;2023-04-25T00:09:59;9.60;;;3.97;;
9188;SDS011;34313;50.780;6.084;2023-04-25T00:12:25;8.47;;;4.33;;
9188;SDS011;34313;50.780;6.084;2023-04-25T00:14:53;9.23;;;3.90;;
9188;SDS011;34313;50.780;6.084;2023-04-25T00:17:18;21.23;;;4.93;;
9188;SDS011;34313;50.780;6.084;2023-04-25T00:19:44;10.47;;;4.20;;
9188;SDS011;34313;50.780;6.084;2023-04-25T00:22:11;8.27;;;4.20;;
9188;SDS011;34313;50.780;6.084;2023-04-25T00:24:37;10.57;;;4.20;;
9188;SDS011;34313;50.780;6.084;2023-04-25T00:27:02;7.00;;;3.93;;
9188;SDS011;34313;50.780;6.084;2023-04-25T00:29:27;8.03;;;4.07;;
9188;SDS011;34313;50.780;6.084;2023-04-25T00:31:53;12.17;;;4.30;;
9188;SDS011;34313;50.780;6.084;2023-04-25T00:34:19;8.70;;;4.60;;
9188;SDS011;34313;50.780;6.084;2023-04-25T00:36:45;8.87;;;4.40;;
9188;SDS011;34313;50.780;6.084;2023-04-25T00:39:11;11.03;;;4.57;;
9188;SDS011;34313;50.780;6.084;2023-04-25T00:41:36;13.20;;;5.10;;
9188;SDS011;34313;50.780;6.084;2023-04-25T00:44:02;9.03;;;4.80;;
9188;SDS011;34313;50.780;6.084;2023-04-25T00:46:29;10.77;;;4.10;;
9188;SDS011;34313;50.780;6.084;2023-04-25T00:48:56;8.53;;;4.47;;
9188;SDS011;34313;50.780;6.084;2023-04-25T00:51:21;11.33;;;4.80;;
9188;SDS011;34313;50.780;6.084;2023-04-25T00:53:49;14.03;;;5.27;;
9188;SDS011;34313;50.780;6.084;2023-04-25T00:56:15;10.80;;;4.50;;
9188;SDS011;34313;50.780;6.084;2023-04-25T00:58:41;13.10;;;5.00;;
9188;SDS011;34313;50.780;6.084;2023-04-25T01:01:07;14.20;;;4.67;;
9188;SDS011;34313;50.780;6.084;2023-04-25T01:03:33;9.90;;;4.33;;
9188;SDS011;34313;50.780;6.084;2023-04-25T01:06:05;10.17;;;4.53;;
9188;SDS011;34313;50.780;6.084;2023-04-25T01:08:32;12.77;;;5.00;;
9188;SDS011;34313;50.780;6.084;2023-04-25T01:10:59;23.80;;;4.80;;
9188;SDS011;34313;50.780;6.084;2023-04-25T01:13:24;15.97;;;4.60;;
9188;SDS011;34313;50.780;6.084;2023-04-25T01:15:49;14.40;;;4.50;;
9188;SDS011;34313;50.780;6.084;2023-04-25T01:18:15;8.57;;;4.00;;
9188;SDS011;34313;50.780;6.084;2023-04-25T01:20:41;11.80;;;4.53;;
9188;SDS011;34313;50.780;6.084;2023-04-25T01:23:07;16.13;;;4.70;;
9188;SDS011;34313;50.780;6.084;2023-04-25T01:25:33;14.90;;;4.40;;
9188;SDS011;34313;50.780;6.084;2023-04-25T01:27:58;11.10;;;4.80;;
9188;SDS011;34313;50.780;6.084;2023-04-25T01:30:28;16.93;;;4.83;;
9188;SDS011;34313;50.780;6.084;2023-04-25T01:32:54;11.73;;;4.37;;
9188;SDS011;34313;50.780;6.084;2023-04-25T01:35:21;9.70;;;4.23;;
9188;SDS011;34313;50.780;6.084;2023-04-25T01:37:49;12.63;;;4.60;;
9188;SDS011;34313;50.780;6.084;2023-04-25T01:40:14;16.13;;;5.00;;
9188;SDS011;34313;50.780;6.084;2023-04-25T01:42:42;12.20;;;4.37;;
9188;SDS011;34313;50.780;6.084;2023-04-25T01:45:09;10.30;;;4.13;;
9188;SDS011;34313;50.780;6.084;2023-04-25T01:47:36;16.87;;;4.90;;
9188;SDS011;34313;50.780;6.084;2023-04-25T01:50:02;14.73;;;5.17;;
9188;SDS011;34313;50.780;6.084;2023-04-25T01:52:28;14.47;;;4.80;;
9188;SDS011;34313;50.780;6.084;2023-04-25T01:54:54;9.13;;;5.03;;
9188;SDS011;34313;50.780;6.084;2023-04-25T01:57:20;15.33;;;5.37;;
9188;SDS011;34313;50.780;6.084;2023-04-25T01:59:45;15.23;;;4.97;;
9188;SDS011;34313;50.780;6.084;2023-04-25T02:02:11;20.37;;;5.00;;
9188;SDS011;34313;50.780;6.084;2023-04-25T02:04:36;16.30;;;5.10;;
9188;SDS011;34313;50.780;6.084;2023-04-25T02:07:02;16.63;;;5.30;;
9188;SDS011;34313;50.780;6.084;2023-04-25T02:09:28;17.73;;;4.83;;
9188;SDS011;34313;50.780;6.084;2023-04-25T02:11:53;14.23;;;4.87;;
9188;SDS011;34313;50.780;6.084;2023-04-25T02:14:19;16.37;;;5.30;;
9188;SDS011;34313;50.780;6.084;2023-04-25T02:16:44;11.70;;;4.83;;
9188;SDS011;34313;50.780;6.084;2023-04-25T02:19:11;18.57;;;4.70;;
9188;SDS011;34313;50.780;6.084;2023-04-25T02:21:36;13.27;;;5.10;;
9188;SDS011;34313;50.780;6.084;2023-04-25T02:24:02;13.00;;;5.57;;
9188;SDS011;34313;50.780;6.084;2023-04-25T02:26:29;16.47;;;4.93;;
9188;SDS011;34313;50.780;6.084;2023-04-25T02:28:55;13.00;;;5.77;;
9188;SDS011;34313;50.780;6.084;2023-04-25T02:31:21;18.60;;;6.43;;
9188;SDS011;34313;50.780;6.084;2023-04-25T02:33:47;13.60;;;5.10;;
9188;SDS011;34313;50.780;6.084;2023-04-25T02:36:12;14.57;;;5.80;;
9188;SDS011;34313;50.780;6.084;2023-04-25T02:38:38;13.33;;;5.50;;
9188;SDS011;34313;50.780;6.084;2023-04-25T02:41:03;17.93;;;5.53;;
9188;SDS011;34313;50.780;6.084;2023-04-25T02:43:29;12.43;;;4.90;;
9188;SDS011;34313;50.780;6.084;2023-04-25T02:45:54;14.30;;;5.83;;
9188;SDS011;34313;50.780;6.084;2023-04-25T02:48:19;15.80;;;5.00;;
9188;SDS011;34313;50.780;6.084;2023-04-25T02:50:45;14.53;;;5.70;;
9188;SDS011;34313;50.780;6.084;2023-04-25T02:53:10;11.00;;;5.23;;
9188;SDS011;34313;50.780;6.084;2023-04-25T02:55:35;19.63;;;5.53;;
9188;SDS011;34313;50.780;6.084;2023-04-25T02:58:01;18.13;;;6.57;;
9188;SDS011;34313;50.780;6.084;2023-04-25T03:00:26;11.53;;;5.20;;
9188;SDS011;34313;50.780;6.084;2023-04-25T03:02:51;13.37;;;5.30;;
9188;SDS011;34313;50.780;6.084;2023-04-25T03:05:17;15.50;;;5.07;;
9188;SDS011;34313;50.780;6.084;2023-04-25T03:07:43;18.73;;;6.00;;
9188;SDS011;34313;50.780;6.084;2023-04-25T03:10:09;21.03;;;6.30;;
9188;SDS011;34313;50.780;6.084;2023-04-25T03:12:35;15.37;;;6.00;;
9188;SDS011;34313;50.780;6.084;2023-04-25T03:15:00;15.40;;;5.80;;
9188;SDS011;34313;50.780;6.084;2023-04-25T03:17:26;17.87;;;6.33;;
9188;SDS011;34313;50.780;6.084;2023-04-25T03:19:51;16.47;;;6.13;;
9188;SDS011;34313;50.780;6.084;2023-04-25T03:22:17;27.63;;;5.57;;
9188;SDS011;34313;50.780;6.084;2023-04-25T03:24:42;17.57;;;5.20;;
9188;SDS011;34313;50.780;6.084;2023-04-25T03:27:07;15.23;;;5.50;;
9188;SDS011;34313;50.780;6.084;2023-04-25T03:29:33;15.90;;;4.63;;
9188;SDS011;34313;50.780;6.084;2023-04-25T03:31:58;13.43;;;5.73;;
9188;SDS011;34313;50.780;6.084;2023-04-25T03:34:24;16.53;;;6.17;;
9188;SDS011;34313;50.780;6.084;2023-04-25T03:36:49;15.17;;;5.67;;
9188;SDS011;34313;50.780;6.084;2023-04-25T03:39:14;13.87;;;5.53;;
9188;SDS011;34313;50.780;6.084;2023-04-25T03:41:40;20.03;;;5.87;;
9188;SDS011;34313;50.780;6.084;2023-04-25T03:44:05;18.23;;;5.83;;
9188;SDS011;34313;50.780;6.084;2023-04-25T03:46:30;13.40;;;5.87;;
9188;SDS011;34313;50.780;6.084;2023-04-25T03:48:56;17.03;;;5.00;;
9188;SDS011;34313;50.780;6.084;2023-04-25T03:51:21;11.90;;;5.40;;
9188;SDS011;34313;50.780;6.084;2023-04-25T03:53:47;12.23;;;5.10;;
9188;SDS011;34313;50.780;6.084;2023-04-25T03:56:12;12.23;;;5.30;;
9188;SDS011;34313;50.780;6.084;2023-04-25T03:58:37;12.90;;;4.73;;
9188;SDS011;34313;50.780;6.084;2023-04-25T04:01:03;13.83;;;5.33;;
9188;SDS011;34313;50.780;6.084;2023-04-25T04:03:32;11.83;;;4.73;;
9188;SDS011;34313;50.780;6.084;2023-04-25T04:05:58;13.47;;;4.90;;
9188;SDS011;34313;50.780;6.084;2023-04-25T04:08:24;16.77;;;5.50;;
9188;SDS011;34313;50.780;6.084;2023-04-25T04:10:49;18.03;;;5.50;;
9188;SDS011;34313;50.780;6.084;2023-04-25T04:13:15;19.00;;;5.90;;
9188;SDS011;34313;50.780;6.084;2023-04-25T04:15:40;14.77;;;4.10;;
9188;SDS011;34313;50.780;6.084;2023-04-25T04:18:05;15.10;;;4.47;;
9188;SDS011;34313;50.780;6.084;2023-04-25T04:20:31;14.30;;;4.30;;
9188;SDS011;34313;50.780;6.084;2023-04-25T04:22:56;17.50;;;4.37;;
9188;SDS011;34313;50.780;6.084;2023-04-25T04:25:21;11.90;;;3.80;;
9188;SDS011;34313;50.780;6.084;2023-04-25T04:27:46;19.07;;;4.60;;
9188;SDS011;34313;50.780;6.084;2023-04-25T04:30:12;13.30;;;4.33;;
9188;SDS011;34313;50.780;6.084;2023-04-25T04:32:37;13.90;;;4.87;;
9188;SDS011;34313;50.780;6.084;2023-04-25T04:35:03;20.20;;;5.03;;
9188;SDS011;34313;50.780;6.084;2023-04-25T04:37:29;17.80;;;4.80;;
9188;SDS011;34313;50.780;6.084;2023-04-25T04:39:55;22.97;;;4.97;;
9188;SDS011;34313;50.780;6.084;2023-04-25T04:42:20;20.93;;;4.60;;
9188;SDS011;34313;50.780;6.084;2023-04-25T04:44:46;15.80;;;4.07;;
9188;SDS011;34313;50.780;6.084;2023-04-25T04:47:11;15.90;;;4.23;;
9188;SDS011;34313;50.780;6.084;2023-04-25T04:49:37;20.47;;;4.47;;
9188;SDS011;34313;50.780;6.084;2023-04-25T04:52:02;18.97;;;4.77;;
9188;SDS011;34313;50.780;6.084;2023-04-25T04:54:28;18.33;;;4.17;;
9188;SDS011;34313;50.780;6.084;2023-04-25T04:56:53;7.67;;;3.70;;
9188;SDS011;34313;50.780;6.084;2023-04-25T04:59:19;14.83;;;3.97;;
9188;SDS011;34313;50.780;6.084;2023-04-25T05:01:44;18.37;;;4.63;;
9188;SDS011;34313;50.780;6.084;2023-04-25T05:04:10;17.60;;;3.70;;
9188;SDS011;34313;50.780;6.084;2023-04-25T05:06:36;19.47;;;4.80;;
9188;SDS011;34313;50.780;6.084;2023-04-25T05:09:01;22.47;;;4.60;;
9188;SDS011;34313;50.780;6.084;2023-04-25T05:11:27;17.83;;;4.00;;
9188;SDS011;34313;50.780;6.084;2023-04-25T05:13:52;15.80;;;4.57;;
9188;SDS011;34313;50.780;6.084;2023-04-25T05:16:18;12.30;;;4.07;;
9188;SDS011;34313;50.780;6.084;2023-04-25T05:18:43;13.23;;;4.50;;
9188;SDS011;34313;50.780;6.084;2023-04-25T05:21:09;25.07;;;4.43;;
9188;SDS011;34313;50.780;6.084;2023-04-25T05:23:34;15.17;;;4.27;;
9188;SDS011;34313;50.780;6.084;2023-04-25T05:25:59;22.93;;;5.13;;
9188;SDS011;34313;50.780;6.084;2023-04-25T05:28:25;9.83;;;4.53;;
9188;SDS011;34313;50.780;6.084;2023-04-25T05:30:50;14.13;;;4.63;;
9188;SDS011;34313;50.780;6.084;2023-04-25T05:33:16;23.27;;;5.37;;
9188;SDS011;34313;50.780;6.084;2023-04-25T05:35:41;14.83;;;4.77;;
9188;SDS011;34313;50.780;6.084;2023-04-25T05:38:07;17.03;;;4.37;;
9188;SDS011;34313;50.780;6.084;2023-04-25T05:40:32;18.53;;;3.77;;
9188;SDS011;34313;50.780;6.084;2023-04-25T05:42:57;13.50;;;4.07;;
9188;SDS011;34313;50.780;6.084;2023-04-25T05:45:23;14.00;;;3.90;;
9188;SDS011;34313;50.780;6.084;2023-04-25T05:47:48;13.77;;;4.20;;
9188;SDS011;34313;50.780;6.084;2023-04-25T05:50:13;15.77;;;4.67;;
9188;SDS011;34313;50.780;6.084;2023-04-25T05:52:38;14.63;;;4.63;;
9188;SDS011;34313;50.780;6.084;2023-04-25T05:55:04;15.27;;;4.70;;
9188;SDS011;34313;50.780;6.084;2023-04-25T05:57:30;19.23;;;4.27;;
9188;SDS011;34313;50.780;6.084;2023-04-25T05:59:56;10.20;;;3.50;;
9188;SDS011;34313;50.780;6.084;2023-04-25T06:02:21;17.93;;;4.83;;
9188;SDS011;34313;50.780;6.084;2023-04-25T06:04:47;12.23;;;3.30;;
9188;SDS011;34313;50.780;6.084;2023-04-25T06:07:14;13.60;;;4.10;;
9188;SDS011;34313;50.780;6.084;2023-04-25T06:09:40;6.87;;;3.17;;
9188;SDS011;34313;50.780;6.084;2023-04-25T06:12:06;12.13;;;3.40;;
9188;SDS011;34313;50.780;6.084;2023-04-25T06:14:32;11.73;;;4.03;;
9188;SDS011;34313;50.780;6.084;2023-04-25T06:16:57;15.83;;;3.83;;
9188;SDS011;34313;50.780;6.084;2023-04-25T06:19:23;14.27;;;4.10;;
9188;SDS011;34313;50.780;6.084;2023-04-25T06:21:48;11.97;;;3.60;;
9188;SDS011;34313;50.780;6.084;2023-04-25T06:24:13;11.50;;;4.10;;
9188;SDS011;34313;50.780;6.084;2023-04-25T06:26:38;14.40;;;4.60;;
9188;SDS011;34313;50.780;6.084;2023-04-25T06:29:04;17.70;;;3.97;;
9188;SDS011;34313;50.780;6.084;2023-04-25T06:31:29;13.77;;;3.70;;
9188;SDS011;34313;50.780;6.084;2023-04-25T06:33:57;7.73;;;3.30;;
9188;SDS011;34313;50.780;6.084;2023-04-25T06:36:22;8.83;;;4.07;;
9188;SDS011;34313;50.780;6.084;2023-04-25T06:38:53;12.40;;;3.77;;
9188;SDS011;34313;50.780;6.084;2023-04-25T06:41:19;16.73;;;3.93;;
9188;SDS011;34313;50.780;6.084;2023-04-25T06:43:45;14.57;;;3.17;;
9188;SDS011;34313;50.780;6.084;2023-04-25T06:46:10;12.20;;;2.60;;
9188;SDS011;34313;50.780;6.084;2023-04-25T06:48:35;12.80;;;2.63;;
9188;SDS011;34313;50.780;6.084;2023-04-25T06:51:01;10.10;;;2.90;;
9188;SDS011;34313;50.780;6.084;2023-04-25T06:53:26;12.13;;;3.07;;
9188;SDS011;34313;50.780;6.084;2023-04-25T06:55:52;13.57;;;2.80;;
9188;SDS011;34313;50.780;6.084;2023-04-25T06:58:17;9.30;;;2.63;;
9188;SDS011;34313;50.780;6.084;2023-04-25T07:00:43;11.83;;;2.83;;
9188;SDS011;34313;50.780;6.084;2023-04-25T07:03:08;9.07;;;2.57;;
9188;SDS011;34313;50.780;6.084;2023-04-25T07:05:34;13.77;;;2.80;;
9188;SDS011;34313;50.780;6.084;2023-04-25T07:08:00;6.07;;;2.50;;
9188;SDS011;34313;50.780;6.084;2023-04-25T07:10:25;17.50;;;2.90;;
9188;SDS011;34313;50.780;6.084;2023-04-25T07:12:50;17.40;;;3.30;;
9188;SDS011;34313;50.780;6.084;2023-04-25T07:15:16;16.63;;;2.37;;
9188;SDS011;34313;50.780;6.084;2023-04-25T07:17:41;11.07;;;2.50;;
9188;SDS011;34313;50.780;6.084;2023-04-25T07:20:07;8.93;;;2.60;;
9188;SDS011;34313;50.780;6.084;2023-04-25T07:22:34;13.47;;;3.07;;
9188;SDS011;34313;50.780;6.084;2023-04-25T07:24:59;13.60;;;3.20;;
9188;SDS011;34313;50.780;6.084;2023-04-25T07:27:25;15.67;;;3.23;;
9188;SDS011;34313;50.780;6.084;2023-04-25T07:29:50;9.57;;;3.30;;
9188;SDS011;34313;50.780;6.084;2023-04-25T07:32:15;17.10;;;3.03;;
9188;SDS011;34313;50.780;6.084;2023-04-25T07:34:40;12.17;;;3.43;;
9188;SDS011;34313;50.780;6.084;2023-04-25T07:37:06;10.20;;;3.10;;
9188;SDS011;34313;50.780;6.084;2023-04-25T07:39:31;7.07;;;2.90;;
9188;SDS011;34313;50.780;6.084;2023-04-25T07:41:57;10.97;;;3.50;;
9188;SDS011;34313;50.780;6.084;2023-04-25T07:44:23;20.20;;;3.80;;
9188;SDS011;34313;50.780;6.084;2023-04-25T07:46:50;16.90;;;3.47;;
9188;SDS011;34313;50.780;6.084;2023-04-25T07:49:16;11.77;;;3.37;;
9188;SDS011;34313;50.780;6.084;2023-04-25T07:51:41;11.23;;;2.57;;
9188;SDS011;34313;50.780;6.084;2023-04-25T07:54:08;11.43;;;2.97;;
9188;SDS011;34313;50.780;6.084;2023-04-25T07:56:34;16.23;;;3.37;;
9188;SDS011;34313;50.780;6.084;2023-04-25T07:59:00;10.47;;;2.83;;
9188;SDS011;34313;50.780;6.084;2023-04-25T08:01:25;13.07;;;2.93;;
9188;SDS011;34313;50.780;6.084;2023-04-25T08:03:51;7.07;;;2.80;;
9188;SDS011;34313;50.780;6.084;2023-04-25T08:06:17;13.53;;;3.40;;
9188;SDS011;34313;50.780;6.084;2023-04-25T08:08:42;9.83;;;2.60;;
9188;SDS011;34313;50.780;6.084;2023-04-25T08:11:08;11.60;;;3.03;;
9188;SDS011;34313;50.780;6.084;2023-04-25T08:13:33;15.40;;;3.30;;
9188;SDS011;34313;50.780;6.084;2023-04-25T08:15:58;16.10;;;2.83;;
9188;SDS011;34313;50.780;6.084;2023-04-25T08:18:24;9.00;;;2.87;;
9188;SDS011;34313;50.780;6.084;2023-04-25T08:20:49;9.23;;;3.30;;
9188;SDS011;34313;50.780;6.084;2023-04-25T08:23:15;12.60;;;2.50;;
9188;SDS011;34313;50.780;6.084;2023-04-25T08:25:40;13.47;;;2.57;;
9188;SDS011;34313;50.780;6.084;2023-04-25T08:28:06;7.80;;;2.30;;
9188;SDS011;34313;50.780;6.084;2023-04-25T08:30:31;8.43;;;2.80;;
9188;SDS011;34313;50.780;6.084;2023-04-25T08:32:56;6.30;;;2.30;;
9188;SDS011;34313;50.780;6.084;2023-04-25T08:35:22;8.17;;;2.60;;
9188;SDS011;34313;50.780;6.084;2023-04-25T08:37:48;10.07;;;2.40;;
9188;SDS011;34313;50.780;6.084;2023-04-25T08:40:14;12.50;;;2.70;;
9188;SDS011;34313;50.780;6.084;2023-04-25T08:42:43;6.57;;;2.23;;
9188;SDS011;34313;50.780;6.084;2023-04-25T08:45:09;6.83;;;2.73;;
9188;SDS011;34313;50.780;6.084;2023-04-25T08:47:35;10.50;;;2.33;;
9188;SDS011;34313;50.780;6.084;2023-04-25T08:50:03;12.70;;;3.10;;
9188;SDS011;34313;50.780;6.084;2023-04-25T08:52:32;7.13;;;2.40;;
9188;SDS011;34313;50.780;6.084;2023-04-25T08:55:01;6.87;;;2.30;;
9188;SDS011;34313;50.780;6.084;2023-04-25T08:57:27;14.07;;;2.90;;
9188;SDS011;34313;50.780;6.084;2023-04-25T08:59:55;11.20;;;2.00;;
9188;SDS011;34313;50.780;6.084;2023-04-25T09:02:22;6.77;;;2.13;;
9188;SDS011;34313;50.780;6.084;2023-04-25T09:04:49;6.90;;;2.13;;
9188;SDS011;34313;50.780;6.084;2023-04-25T09:07:15;8.63;;;2.70;;
9188;SDS011;34313;50.780;6.084;2023-04-25T09:09:43;8.43;;;2.27;;
9188;SDS011;34313;50.780;6.084;2023-04-25T09:12:08;6.07;;;2.30;;
9188;SDS011;34313;50.780;6.084;2023-04-25T09:14:34;4.70;;;2.10;;
9188;SDS011;34313;50.780;6.084;2023-04-25T09:17:01;6.83;;;2.20;;
9188;SDS011;34313;50.780;6.084;2023-04-25T09:19:33;7.43;;;2.00;;
9188;SDS011;34313;50.780;6.084;2023-04-25T09:22:01;6.80;;;2.13;;
9188;SDS011;34313;50.780;6.084;2023-04-25T09:24:34;8.33;;;2.37;;
9188;SDS011;34313;50.780;6.084;2023-04-25T09:27:02;8.20;;;2.30;;
9188;SDS011;34313;50.780;6.084;2023-04-25T09:29:28;7.53;;;2.20;;
9188;SDS011;34313;50.780;6.084;2023-04-25T09:32:10;5.07;;;1.97;;
9188;SDS011;34313;50.780;6.084;2023-04-25T09:34:41;4.67;;;2.07;;
9188;SDS011;34313;50.780;6.084;2023-04-25T09:37:08;7.20;;;2.00;;
9188;SDS011;34313;50.780;6.084;2023-04-25T09:39:35;5.80;;;2.23;;
9188;SDS011;34313;50.780;6.084;2023-04-25T09:42:02;8.20;;;2.63;;
9188;SDS011;34313;50.780;6.084;2023-04-25T09:44:28;7.97;;;2.20;;
9188;SDS011;34313;50.780;6.084;2023-04-25T09:46:53;17.33;;;2.77;;
9188;SDS011;34313;50.780;6.084;2023-04-25T09:49:19;7.27;;;1.90;;
9188;SDS011;34313;50.780;6.084;2023-04-25T09:51:55;5.20;;;1.80;;
9188;SDS011;34313;50.780;6.084;2023-04-25T09:54:24;7.33;;;2.07;;
9188;SDS011;34313;50.780;6.084;2023-04-25T09:56:51;6.23;;;2.20;;
9188;SDS011;34313;50.780;6.084;2023-04-25T09:59:20;4.53;;;2.00;;
9188;SDS011;34313;50.780;6.084;2023-04-25T10:01:47;5.85;;;2.28;;
9188;SDS011;34313;50.780;6.084;2023-04-25T10:04:14;8.07;;;1.97;;
9188;SDS011;34313;50.780;6.084;2023-04-25T10:06:44;17.73;;;4.73;;
9188;SDS011;34313;50.780;6.084;2023-04-25T10:09:11;9.67;;;3.10;;
9188;SDS011;34313;50.780;6.084;2023-04-25T10:11:37;5.43;;;2.20;;
9188;SDS011;34313;50.780;6.084;2023-04-25T10:14:03;11.03;;;2.47;;
9188;SDS011;34313;50.780;6.084;2023-04-25T10:16:30;10.10;;;1.90;;
9188;SDS011;34313;50.780;6.084;2023-04-25T10:18:55;11.67;;;2.67;;
9188;SDS011;34313;50.780;6.084;2023-04-25T10:21:21;8.57;;;2.10;;
9188;SDS011;34313;50.780;6.084;2023-04-25T10:23:47;8.00;;;2.97;;
9188;SDS011;34313;50.780;6.084;2023-04-25T10:26:14;9.40;;;2.80;;
9188;SDS011;34313;50.780;6.084;2023-04-25T10:28:59;5.30;;;2.50;;
9188;SDS011;34313;50.780;6.084;2023-04-25T10:31:26;17.87;;;2.70;;
9188;SDS011;34313;50.780;6.084;2023-04-25T10:33:53;8.93;;;2.53;;
9188;SDS011;34313;50.780;6.084;2023-04-25T10:36:20;10.70;;;3.70;;
9188;SDS011;34313;50.780;6.084;2023-04-25T10:38:47;13.57;;;3.57;;
9188;SDS011;34313;50.780;6.084;2023-04-25T10:41:18;14.03;;;2.97;;
9188;SDS011;34313;50.780;6.084;2023-04-25T10:43:45;9.90;;;3.03;;
9188;SDS011;34313;50.780;6.084;2023-04-25T10:46:18;11.53;;;2.83;;
9188;SDS011;34313;50.780;6.084;2023-04-25T10:48:47;8.93;;;2.80;;
9188;SDS011;34313;50.780;6.084;2023-04-25T10:51:26;4.50;;;2.70;;
9188;SDS011;34313;50.780;6.084;2023-04-25T10:56:21;7.00;;;2.83;;
9188;SDS011;34313;50.780;6.084;2023-04-25T10:58:48;7.80;;;2.77;;
9188;SDS011;34313;50.780;6.084;2023-04-25T11:01:14;7.20;;;2.80;;
9188;SDS011;34313;50.780;6.084;2023-04-25T11:03:44;7.13;;;2.90;;
9188;SDS011;34313;50.780;6.084;2023-04-25T11:06:15;7.60;;;2.77;;
9188;SDS011;34313;50.780;6.084;2023-04-25T11:09:02;10.60;;;3.50;;
9188;SDS011;34313;50.780;6.084;2023-04-25T11:11:33;6.60;;;2.63;;
9188;SDS011;34313;50.780;6.084;2023-04-25T11:14:01;7.90;;;2.33;;
9188;SDS011;34313;50.780;6.084;2023-04-25T11:16:26;10.40;;;2.93;;
9188;SDS011;34313;50.780;6.084;2023-04-25T11:18:52;8.87;;;2.77;;
9188;SDS011;34313;50.780;6.084;2023-04-25T11:21:17;11.60;;;3.40;;
9188;SDS011;34313;50.780;6.084;2023-04-25T11:23:44;9.57;;;3.20;;
9188;SDS011;34313;50.780;6.084;2023-04-25T11:26:11;10.50;;;3.27;;
9188;SDS011;34313;50.780;6.084;2023-04-25T11:28:36;8.70;;;2.57;;
9188;SDS011;34313;50.780;6.084;2023-04-25T11:31:02;9.70;;;2.70;;
9188;SDS011;34313;50.780;6.084;2023-04-25T11:33:29;6.40;;;2.90;;
9188;SDS011;34313;50.780;6.084;2023-04-25T11:35:54;7.37;;;2.83;;
9188;SDS011;34313;50.780;6.084;2023-04-25T11:38:22;12.50;;;2.77;;
9188;SDS011;34313;50.780;6.084;2023-04-25T11:40:50;5.23;;;2.40;;
9188;SDS011;34313;50.780;6.084;2023-04-25T11:43:22;9.37;;;3.00;;
9188;SDS011;34313;50.780;6.084;2023-04-25T11:45:48;8.47;;;2.93;;
9188;SDS011;34313;50.780;6.084;2023-04-25T11:48:15;16.67;;;2.80;;
9188;SDS011;34313;50.780;6.084;2023-04-25T11:50:44;7.87;;;2.20;;
9188;SDS011;34313;50.780;6.084;2023-04-25T11:53:10;5.90;;;2.00;;
9188;SDS011;34313;50.780;6.084;2023-04-25T11:55:35;8.77;;;2.00;;
9188;SDS011;34313;50.780;6.084;2023-04-25T11:58:01;8.27;;;2.33;;
9188;SDS011;34313;50.780;6.084;2023-04-25T12:00:29;7.80;;;2.10;;
9188;SDS011;34313;50.780;6.084;2023-04-25T12:02:55;6.83;;;2.33;;
9188;SDS011;34313;50.780;6.084;2023-04-25T12:05:26;3.73;;;1.60;;
9188;SDS011;34313;50.780;6.084;2023-04-25T12:07:53;7.10;;;2.10;;
9188;SDS011;34313;50.780;6.084;2023-04-25T12:10:20;3.90;;;2.20;;
9188;SDS011;34313;50.780;6.084;2023-04-25T12:12:46;5.03;;;1.80;;
9188;SDS011;34313;50.780;6.084;2023-04-25T12:15:13;3.43;;;1.60;;
9188;SDS011;34313;50.780;6.084;2023-04-25T12:17:44;6.43;;;1.90;;
9188;SDS011;34313;50.780;6.084;2023-04-25T12:20:15;6.10;;;2.03;;
9188;SDS011;34313;50.780;6.084;2023-04-25T12:22:42;11.00;;;2.50;;
9188;SDS011;34313;50.780;6.084;2023-04-25T12:25:10;5.50;;;1.83;;
9188;SDS011;34313;50.780;6.084;2023-04-25T12:27:36;7.77;;;1.97;;
9188;SDS011;34313;50.780;6.084;2023-04-25T12:30:01;8.00;;;2.23;;
9188;SDS011;34313;50.780;6.084;2023-04-25T12:32:27;7.70;;;2.50;;
9188;SDS011;34313;50.780;6.084;2023-04-25T12:34:52;5.10;;;1.90;;
9188;SDS011;34313;50.780;6.084;2023-04-25T12:37:17;7.73;;;3.43;;
9188;SDS011;34313;50.780;6.084;2023-04-25T12:39:43;8.13;;;3.03;;
9188;SDS011;34313;50.780;6.084;2023-04-25T12:42:08;11.77;;;2.60;;
9188;SDS011;34313;50.780;6.084;2023-04-25T12:44:36;6.17;;;2.80;;
9188;SDS011;34313;50.780;6.084;2023-04-25T12:47:02;4.13;;;1.63;;
9188;SDS011;34313;50.780;6.084;2023-04-25T12:49:28;4.60;;;1.63;;
9188;SDS011;34313;50.780;6.084;2023-04-25T12:51:53;6.73;;;1.90;;
9188;SDS011;34313;50.780;6.084;2023-04-25T12:54:18;7.40;;;1.80;;
9188;SDS011;34313;50.780;6.084;2023-04-25T12:56:44;3.63;;;1.90;;
9188;SDS011;34313;50.780;6.084;2023-04-25T12:59:09;6.80;;;2.17;;
9188;SDS011;34313;50.780;6.084;2023-04-25T13:01:34;4.77;;;1.93;;
9188;SDS011;34313;50.780;6.084;2023-04-25T13:04:00;7.13;;;2.30;;
9188;SDS011;34313;50.780;6.084;2023-04-25T13:06:25;6.37;;;2.43;;
9188;SDS011;34313;50.780;6.084;2023-04-25T13:08:51;11.33;;;2.20;;
9188;SDS011;34313;50.780;6.084;2023-04-25T13:11:16;4.90;;;2.00;;
9188;SDS011;34313;50.780;6.084;2023-04-25T13:13:42;5.50;;;2.10;;
9188;SDS011;34313;50.780;6.084;2023-04-25T13:16:09;4.67;;;2.03;;
9188;SDS011;34313;50.780;6.084;2023-04-25T13:18:34;5.60;;;1.90;;
9188;SDS011;34313;50.780;6.084;2023-04-25T13:21:00;5.83;;;2.00;;
9188;SDS011;34313;50.780;6.084;2023-04-25T13:23:26;9.03;;;2.50;;
9188;SDS011;34313;50.780;6.084;2023-04-25T13:25:52;5.70;;;1.93;;
9188;SDS011;34313;50.780;6.084;2023-04-25T13:28:18;6.40;;;1.93;;
9188;SDS011;34313;50.780;6.084;2023-04-25T13:30:44;5.57;;;1.63;;
9188;SDS011;34313;50.780;6.084;2023-04-25T13:33:10;6.20;;;2.40;;
9188;SDS011;34313;50.780;6.084;2023-04-25T13:35:36;4.17;;;2.17;;
9188;SDS011;34313;50.780;6.084;2023-04-25T13:38:03;4.00;;;1.60;;
9188;SDS011;34313;50.780;6.084;2023-04-25T13:40:28;6.80;;;1.90;;
9188;SDS011;34313;50.780;6.084;2023-04-25T13:42:54;2.93;;;1.70;;
9188;SDS011;34313;50.780;6.084;2023-04-25T13:45:20;3.10;;;1.43;;
9188;SDS011;34313;50.780;6.084;2023-04-25T13:47:45;6.07;;;2.00;;
9188;SDS011;34313;50.780;6.084;2023-04-25T13:50:11;9.13;;;2.17;;
9188;SDS011;34313;50.780;6.084;2023-04-25T13:52:38;5.67;;;1.97;;
9188;SDS011;34313;50.780;6.084;2023-04-25T13:55:03;5.73;;;2.00;;
9188;SDS011;34313;50.780;6.084;2023-04-25T13:57:31;7.10;;;2.10;;
9188;SDS011;34313;50.780;6.084;2023-04-25T13:59:57;6.70;;;1.87;;
9188;SDS011;34313;50.780;6.084;2023-04-25T14:02:22;6.20;;;1.90;;
9188;SDS011;34313;50.780;6.084;2023-04-25T14:04:50;2.67;;;1.70;;
9188;SDS011;34313;50.780;6.084;2023-04-25T14:07:16;4.73;;;1.80;;
9188;SDS011;34313;50.780;6.084;2023-04-25T14:09:41;4.70;;;1.90;;
9188;SDS011;34313;50.780;6.084;2023-04-25T14:12:07;4.70;;;2.00;;
9188;SDS011;34313;50.780;6.084;2023-04-25T14:14:32;8.67;;;2.07;;
9188;SDS011;34313;50.780;6.084;2023-04-25T14:16:57;6.07;;;1.67;;
9188;SDS011;34313;50.780;6.084;2023-04-25T14:19:23;6.07;;;1.63;;
9188;SDS011;34313;50.780;6.084;2023-04-25T14:21:49;7.20;;;1.97;;
9188;SDS011;34313;50.780;6.084;2023-04-25T14:24:14;3.80;;;1.77;;
9188;SDS011;34313;50.780;6.084;2023-04-25T14:26:40;3.97;;;1.83;;
9188;SDS011;34313;50.780;6.084;2023-04-25T14:29:07;3.77;;;1.60;;
9188;SDS011;34313;50.780;6.084;2023-04-25T14:31:33;5.80;;;1.50;;
9188;SDS011;34313;50.780;6.084;2023-04-25T14:34:00;5.43;;;1.83;;
9188;SDS011;34313;50.780;6.084;2023-04-25T14:36:26;8.57;;;1.83;;
9188;SDS011;34313;50.780;6.084;2023-04-25T14:38:52;6.63;;;1.90;;
9188;SDS011;34313;50.780;6.084;2023-04-25T14:41:18;8.17;;;2.07;;
9188;SDS011;34313;50.780;6.084;2023-04-25T14:43:43;6.10;;;2.10;;
9188;SDS011;34313;50.780;6.084;2023-04-25T14:46:09;7.90;;;2.27;;
9188;SDS011;34313;50.780;6.084;2023-04-25T14:48:35;5.80;;;1.90;;